KDUC/DUC METAR and TAF weather

Enter ICAO airport designator
Station Type Date Time Source
KDUC METAR 2019/02/20 07:15 UTC NOAA

KDUC 200715Z AUTO 27007KT 7SM OVC005 01/00 A2994 RMK AO2 T00070003


Station Type Date Time Source
KDUC Decoded METAR 2019/02/20 07:15 UTC NOAA

Duncan, Halliburton Field Airport, OK, United States (KDUC) 34-28-15N 097-57-36W
Feb 20, 2019 - 02:15 AM EST / 2019.02.20 0715 UTC
Wind: from the W (270 degrees) at 8 MPH (7 KT):0
Visibility: 7 mile(s):0
Sky conditions: overcast
Temperature: 33.3 F (0.7 C)
Windchill: 26 F (-3 C):1
Dew Point: 32.5 F (0.3 C)
Relative Humidity: 97%
Pressure (altimeter): 29.94 in. Hg (1013 hPa)
ob: KDUC 200715Z AUTO 27007KT 7SM OVC005 01/00 A2994 RMK AO2 T00070003
cycle: 7

Station Type Date Time Source
KDUC TAF UTC NOAA

Error!


Example: see airport list